sensor_id;sensor_type;location;lat;lon;timestamp;P1;durP1;ratioP1;P2;durP2;ratioP2
7057;SDS011;3570;43.080;25.628;2022-12-18T00:01:56;4.50;;;3.70;;
7057;SDS011;3570;43.080;25.628;2022-12-18T00:04:42;5.17;;;3.30;;
7057;SDS011;3570;43.080;25.628;2022-12-18T00:07:26;3.93;;;3.40;;
7057;SDS011;3570;43.080;25.628;2022-12-18T00:10:10;6.13;;;4.13;;
7057;SDS011;3570;43.080;25.628;2022-12-18T00:12:54;6.20;;;4.37;;
7057;SDS011;3570;43.080;25.628;2022-12-18T00:15:38;5.73;;;4.53;;
7057;SDS011;3570;43.080;25.628;2022-12-18T00:18:23;5.53;;;4.03;;
7057;SDS011;3570;43.080;25.628;2022-12-18T00:21:08;6.47;;;4.17;;
7057;SDS011;3570;43.080;25.628;2022-12-18T00:23:53;4.37;;;3.83;;
7057;SDS011;3570;43.080;25.628;2022-12-18T00:26:38;6.40;;;4.60;;
7057;SDS011;3570;43.080;25.628;2022-12-18T00:29:23;6.23;;;4.33;;
7057;SDS011;3570;43.080;25.628;2022-12-18T00:32:07;5.53;;;3.90;;
7057;SDS011;3570;43.080;25.628;2022-12-18T00:34:51;8.03;;;4.40;;
7057;SDS011;3570;43.080;25.628;2022-12-18T00:37:35;5.53;;;4.13;;
7057;SDS011;3570;43.080;25.628;2022-12-18T00:40:19;5.93;;;4.33;;
7057;SDS011;3570;43.080;25.628;2022-12-18T00:43:03;6.77;;;4.23;;
7057;SDS011;3570;43.080;25.628;2022-12-18T00:45:47;5.80;;;3.93;;
7057;SDS011;3570;43.080;25.628;2022-12-18T00:48:31;4.60;;;3.90;;
7057;SDS011;3570;43.080;25.628;2022-12-18T00:51:15;5.33;;;3.80;;
7057;SDS011;3570;43.080;25.628;2022-12-18T00:53:59;5.80;;;4.10;;
7057;SDS011;3570;43.080;25.628;2022-12-18T00:56:43;6.63;;;4.07;;
7057;SDS011;3570;43.080;25.628;2022-12-18T00:59:27;4.87;;;3.60;;
7057;SDS011;3570;43.080;25.628;2022-12-18T01:02:11;4.17;;;3.77;;
7057;SDS011;3570;43.080;25.628;2022-12-18T01:04:57;6.60;;;4.00;;
7057;SDS011;3570;43.080;25.628;2022-12-18T01:07:41;5.20;;;4.47;;
7057;SDS011;3570;43.080;25.628;2022-12-18T01:10:25;4.23;;;3.53;;
7057;SDS011;3570;43.080;25.628;2022-12-18T01:13:09;5.53;;;4.13;;
7057;SDS011;3570;43.080;25.628;2022-12-18T01:15:53;7.00;;;3.97;;
7057;SDS011;3570;43.080;25.628;2022-12-18T01:18:37;5.80;;;4.20;;
7057;SDS011;3570;43.080;25.628;2022-12-18T01:21:21;5.43;;;4.07;;
7057;SDS011;3570;43.080;25.628;2022-12-18T01:24:06;5.20;;;4.13;;
7057;SDS011;3570;43.080;25.628;2022-12-18T01:26:50;7.07;;;4.80;;
7057;SDS011;3570;43.080;25.628;2022-12-18T01:29:34;6.23;;;4.53;;
7057;SDS011;3570;43.080;25.628;2022-12-18T01:32:19;5.13;;;3.93;;
7057;SDS011;3570;43.080;25.628;2022-12-18T01:35:03;4.70;;;3.90;;
7057;SDS011;3570;43.080;25.628;2022-12-18T01:37:47;5.07;;;4.17;;
7057;SDS011;3570;43.080;25.628;2022-12-18T01:40:31;7.10;;;4.80;;
7057;SDS011;3570;43.080;25.628;2022-12-18T01:43:15;5.63;;;3.80;;
7057;SDS011;3570;43.080;25.628;2022-12-18T01:45:59;5.53;;;4.30;;
7057;SDS011;3570;43.080;25.628;2022-12-18T01:48:45;5.50;;;4.20;;
7057;SDS011;3570;43.080;25.628;2022-12-18T01:51:34;4.83;;;3.80;;
7057;SDS011;3570;43.080;25.628;2022-12-18T01:54:18;6.00;;;3.97;;
7057;SDS011;3570;43.080;25.628;2022-12-18T01:57:02;6.73;;;4.53;;
7057;SDS011;3570;43.080;25.628;2022-12-18T01:59:47;7.30;;;4.30;;
7057;SDS011;3570;43.080;25.628;2022-12-18T02:02:35;5.87;;;4.37;;
7057;SDS011;3570;43.080;25.628;2022-12-18T02:05:22;6.97;;;4.40;;
7057;SDS011;3570;43.080;25.628;2022-12-18T02:08:10;6.70;;;4.30;;
7057;SDS011;3570;43.080;25.628;2022-12-18T02:16:56;7.57;;;4.90;;
7057;SDS011;3570;43.080;25.628;2022-12-18T02:25:53;8.67;;;4.80;;
7057;SDS011;3570;43.080;25.628;2022-12-18T02:29:01;6.73;;;4.73;;
7057;SDS011;3570;43.080;25.628;2022-12-18T02:31:57;6.27;;;4.47;;
7057;SDS011;3570;43.080;25.628;2022-12-18T02:34:44;6.07;;;4.70;;
7057;SDS011;3570;43.080;25.628;2022-12-18T02:37:30;7.17;;;4.63;;
7057;SDS011;3570;43.080;25.628;2022-12-18T02:40:15;6.33;;;5.00;;
7057;SDS011;3570;43.080;25.628;2022-12-18T02:43:02;8.00;;;5.07;;
7057;SDS011;3570;43.080;25.628;2022-12-18T02:45:55;9.40;;;5.67;;
7057;SDS011;3570;43.080;25.628;2022-12-18T02:48:41;12.63;;;7.20;;
7057;SDS011;3570;43.080;25.628;2022-12-18T02:51:29;11.90;;;6.80;;
7057;SDS011;3570;43.080;25.628;2022-12-18T02:54:57;9.23;;;6.13;;
7057;SDS011;3570;43.080;25.628;2022-12-18T03:03:45;12.40;;;6.80;;
7057;SDS011;3570;43.080;25.628;2022-12-18T03:06:37;11.87;;;6.87;;
7057;SDS011;3570;43.080;25.628;2022-12-18T03:09:29;11.83;;;6.67;;
7057;SDS011;3570;43.080;25.628;2022-12-18T03:12:19;13.27;;;7.17;;
7057;SDS011;3570;43.080;25.628;2022-12-18T03:15:08;11.30;;;7.40;;
7057;SDS011;3570;43.080;25.628;2022-12-18T03:18:08;15.57;;;8.33;;
7057;SDS011;3570;43.080;25.628;2022-12-18T03:20:58;18.47;;;9.03;;
7057;SDS011;3570;43.080;25.628;2022-12-18T03:23:44;13.00;;;8.07;;
7057;SDS011;3570;43.080;25.628;2022-12-18T03:26:33;10.90;;;7.03;;
7057;SDS011;3570;43.080;25.628;2022-12-18T03:29:21;12.87;;;7.77;;
7057;SDS011;3570;43.080;25.628;2022-12-18T03:32:14;12.67;;;7.90;;
7057;SDS011;3570;43.080;25.628;2022-12-18T03:35:04;12.30;;;6.70;;
7057;SDS011;3570;43.080;25.628;2022-12-18T03:37:50;12.10;;;7.93;;
7057;SDS011;3570;43.080;25.628;2022-12-18T03:40:43;13.73;;;7.93;;
7057;SDS011;3570;43.080;25.628;2022-12-18T03:46:30;12.67;;;8.10;;
7057;SDS011;3570;43.080;25.628;2022-12-18T03:52:36;15.93;;;8.37;;
7057;SDS011;3570;43.080;25.628;2022-12-18T03:55:25;15.23;;;8.70;;
7057;SDS011;3570;43.080;25.628;2022-12-18T03:58:14;12.83;;;7.90;;
7057;SDS011;3570;43.080;25.628;2022-12-18T04:01:03;15.20;;;7.97;;
7057;SDS011;3570;43.080;25.628;2022-12-18T04:03:51;16.43;;;8.80;;
7057;SDS011;3570;43.080;25.628;2022-12-18T04:06:37;16.47;;;9.03;;
7057;SDS011;3570;43.080;25.628;2022-12-18T04:09:22;15.23;;;9.27;;
7057;SDS011;3570;43.080;25.628;2022-12-18T04:12:08;15.47;;;9.13;;
7057;SDS011;3570;43.080;25.628;2022-12-18T04:14:52;14.10;;;8.23;;
7057;SDS011;3570;43.080;25.628;2022-12-18T04:17:36;18.70;;;10.23;;
7057;SDS011;3570;43.080;25.628;2022-12-18T04:20:21;15.43;;;9.47;;
7057;SDS011;3570;43.080;25.628;2022-12-18T04:23:05;17.30;;;8.80;;
7057;SDS011;3570;43.080;25.628;2022-12-18T04:25:49;17.83;;;9.87;;
7057;SDS011;3570;43.080;25.628;2022-12-18T04:28:33;16.47;;;9.33;;
7057;SDS011;3570;43.080;25.628;2022-12-18T04:31:16;15.53;;;9.77;;
7057;SDS011;3570;43.080;25.628;2022-12-18T04:34:01;17.50;;;10.20;;
7057;SDS011;3570;43.080;25.628;2022-12-18T04:36:45;15.30;;;8.97;;
7057;SDS011;3570;43.080;25.628;2022-12-18T04:39:30;17.30;;;9.93;;
7057;SDS011;3570;43.080;25.628;2022-12-18T04:42:14;14.40;;;8.97;;
7057;SDS011;3570;43.080;25.628;2022-12-18T04:44:58;16.63;;;9.30;;
7057;SDS011;3570;43.080;25.628;2022-12-18T04:47:42;15.73;;;9.60;;
7057;SDS011;3570;43.080;25.628;2022-12-18T04:50:25;16.53;;;9.37;;
7057;SDS011;3570;43.080;25.628;2022-12-18T04:53:10;18.37;;;10.33;;
7057;SDS011;3570;43.080;25.628;2022-12-18T04:56:07;17.97;;;10.00;;
7057;SDS011;3570;43.080;25.628;2022-12-18T04:58:53;15.73;;;9.70;;
7057;SDS011;3570;43.080;25.628;2022-12-18T05:01:37;16.87;;;10.03;;
7057;SDS011;3570;43.080;25.628;2022-12-18T05:04:21;15.60;;;10.20;;
7057;SDS011;3570;43.080;25.628;2022-12-18T05:07:05;18.83;;;10.80;;
7057;SDS011;3570;43.080;25.628;2022-12-18T05:09:49;14.57;;;8.67;;
7057;SDS011;3570;43.080;25.628;2022-12-18T05:12:33;16.87;;;9.67;;
7057;SDS011;3570;43.080;25.628;2022-12-18T05:15:37;20.10;;;11.73;;
7057;SDS011;3570;43.080;25.628;2022-12-18T05:18:22;18.80;;;11.10;;
7057;SDS011;3570;43.080;25.628;2022-12-18T05:21:07;16.70;;;9.90;;
7057;SDS011;3570;43.080;25.628;2022-12-18T05:23:51;18.40;;;10.33;;
7057;SDS011;3570;43.080;25.628;2022-12-18T05:26:35;19.47;;;9.63;;
7057;SDS011;3570;43.080;25.628;2022-12-18T05:29:18;16.30;;;9.10;;
7057;SDS011;3570;43.080;25.628;2022-12-18T05:32:02;15.37;;;9.30;;
7057;SDS011;3570;43.080;25.628;2022-12-18T05:34:47;16.53;;;9.50;;
7057;SDS011;3570;43.080;25.628;2022-12-18T05:37:31;15.63;;;9.67;;
7057;SDS011;3570;43.080;25.628;2022-12-18T05:40:15;18.13;;;9.67;;
7057;SDS011;3570;43.080;25.628;2022-12-18T05:42:59;17.60;;;10.00;;
7057;SDS011;3570;43.080;25.628;2022-12-18T05:45:43;18.07;;;10.00;;
7057;SDS011;3570;43.080;25.628;2022-12-18T05:48:28;20.00;;;10.73;;
7057;SDS011;3570;43.080;25.628;2022-12-18T05:51:13;17.20;;;10.53;;
7057;SDS011;3570;43.080;25.628;2022-12-18T05:53:59;15.73;;;9.20;;
7057;SDS011;3570;43.080;25.628;2022-12-18T05:56:43;14.77;;;9.27;;
7057;SDS011;3570;43.080;25.628;2022-12-18T05:59:27;21.53;;;10.47;;
7057;SDS011;3570;43.080;25.628;2022-12-18T06:02:11;16.93;;;9.33;;
7057;SDS011;3570;43.080;25.628;2022-12-18T06:04:55;16.70;;;9.90;;
7057;SDS011;3570;43.080;25.628;2022-12-18T06:07:39;14.63;;;8.70;;
7057;SDS011;3570;43.080;25.628;2022-12-18T06:10:23;16.50;;;9.30;;
7057;SDS011;3570;43.080;25.628;2022-12-18T06:13:07;14.10;;;8.77;;
7057;SDS011;3570;43.080;25.628;2022-12-18T06:15:51;13.80;;;8.70;;
7057;SDS011;3570;43.080;25.628;2022-12-18T06:18:35;14.03;;;8.80;;
7057;SDS011;3570;43.080;25.628;2022-12-18T06:21:19;18.70;;;9.93;;
7057;SDS011;3570;43.080;25.628;2022-12-18T06:24:03;13.97;;;9.30;;
7057;SDS011;3570;43.080;25.628;2022-12-18T06:26:48;15.93;;;8.00;;
7057;SDS011;3570;43.080;25.628;2022-12-18T06:29:31;17.43;;;9.70;;
7057;SDS011;3570;43.080;25.628;2022-12-18T06:32:15;16.30;;;9.73;;
7057;SDS011;3570;43.080;25.628;2022-12-18T06:35:00;16.93;;;9.90;;
7057;SDS011;3570;43.080;25.628;2022-12-18T06:37:44;16.87;;;10.20;;
7057;SDS011;3570;43.080;25.628;2022-12-18T06:40:28;17.63;;;9.90;;
7057;SDS011;3570;43.080;25.628;2022-12-18T06:43:13;17.97;;;9.70;;
7057;SDS011;3570;43.080;25.628;2022-12-18T06:46:00;23.00;;;11.00;;
7057;SDS011;3570;43.080;25.628;2022-12-18T06:48:46;18.00;;;10.37;;
7057;SDS011;3570;43.080;25.628;2022-12-18T06:51:32;16.07;;;9.80;;
7057;SDS011;3570;43.080;25.628;2022-12-18T06:54:16;18.67;;;10.07;;
7057;SDS011;3570;43.080;25.628;2022-12-18T06:57:00;15.33;;;10.27;;
7057;SDS011;3570;43.080;25.628;2022-12-18T06:59:44;19.67;;;10.57;;
7057;SDS011;3570;43.080;25.628;2022-12-18T07:02:28;18.90;;;10.83;;
7057;SDS011;3570;43.080;25.628;2022-12-18T07:05:12;20.57;;;11.63;;
7057;SDS011;3570;43.080;25.628;2022-12-18T07:07:56;19.93;;;12.57;;
7057;SDS011;3570;43.080;25.628;2022-12-18T07:10:40;25.40;;;11.33;;
7057;SDS011;3570;43.080;25.628;2022-12-18T07:13:26;22.50;;;12.73;;
7057;SDS011;3570;43.080;25.628;2022-12-18T07:16:14;24.13;;;12.13;;
7057;SDS011;3570;43.080;25.628;2022-12-18T07:19:00;29.10;;;11.90;;
7057;SDS011;3570;43.080;25.628;2022-12-18T07:21:44;25.10;;;11.70;;
7057;SDS011;3570;43.080;25.628;2022-12-18T07:24:28;19.67;;;10.53;;
7057;SDS011;3570;43.080;25.628;2022-12-18T07:27:12;20.37;;;11.57;;
7057;SDS011;3570;43.080;25.628;2022-12-18T07:29:56;24.33;;;11.73;;
7057;SDS011;3570;43.080;25.628;2022-12-18T07:32:40;42.03;;;18.00;;
7057;SDS011;3570;43.080;25.628;2022-12-18T07:35:23;22.83;;;12.27;;
7057;SDS011;3570;43.080;25.628;2022-12-18T07:38:07;22.00;;;12.27;;
7057;SDS011;3570;43.080;25.628;2022-12-18T07:40:52;19.23;;;9.77;;
7057;SDS011;3570;43.080;25.628;2022-12-18T07:43:36;22.73;;;10.07;;
7057;SDS011;3570;43.080;25.628;2022-12-18T07:46:20;19.43;;;11.60;;
7057;SDS011;3570;43.080;25.628;2022-12-18T07:49:04;21.37;;;11.60;;
7057;SDS011;3570;43.080;25.628;2022-12-18T07:51:48;23.37;;;12.93;;
7057;SDS011;3570;43.080;25.628;2022-12-18T07:54:32;18.93;;;12.00;;
7057;SDS011;3570;43.080;25.628;2022-12-18T07:57:17;26.73;;;11.23;;
7057;SDS011;3570;43.080;25.628;2022-12-18T08:00:01;17.73;;;11.27;;
7057;SDS011;3570;43.080;25.628;2022-12-18T08:02:46;18.87;;;9.60;;
7057;SDS011;3570;43.080;25.628;2022-12-18T08:05:29;33.10;;;12.30;;
7057;SDS011;3570;43.080;25.628;2022-12-18T08:08:13;20.33;;;10.67;;
7057;SDS011;3570;43.080;25.628;2022-12-18T08:10:58;18.03;;;10.60;;
7057;SDS011;3570;43.080;25.628;2022-12-18T08:13:41;17.97;;;10.30;;
7057;SDS011;3570;43.080;25.628;2022-12-18T08:16:26;28.37;;;15.83;;
7057;SDS011;3570;43.080;25.628;2022-12-18T08:19:10;22.33;;;11.10;;
7057;SDS011;3570;43.080;25.628;2022-12-18T08:21:54;31.27;;;11.03;;
7057;SDS011;3570;43.080;25.628;2022-12-18T08:24:38;21.40;;;11.27;;
7057;SDS011;3570;43.080;25.628;2022-12-18T08:27:22;22.47;;;12.03;;
7057;SDS011;3570;43.080;25.628;2022-12-18T08:30:06;27.63;;;13.27;;
7057;SDS011;3570;43.080;25.628;2022-12-18T08:32:51;22.43;;;11.67;;
7057;SDS011;3570;43.080;25.628;2022-12-18T08:35:36;20.33;;;10.10;;
7057;SDS011;3570;43.080;25.628;2022-12-18T08:38:21;30.50;;;11.07;;
7057;SDS011;3570;43.080;25.628;2022-12-18T08:41:07;20.90;;;11.67;;
7057;SDS011;3570;43.080;25.628;2022-12-18T08:43:53;19.80;;;11.67;;
7057;SDS011;3570;43.080;25.628;2022-12-18T08:46:56;19.77;;;11.40;;
7057;SDS011;3570;43.080;25.628;2022-12-18T08:49:40;20.70;;;11.43;;
7057;SDS011;3570;43.080;25.628;2022-12-18T08:52:24;25.30;;;13.30;;
7057;SDS011;3570;43.080;25.628;2022-12-18T08:55:08;24.47;;;11.83;;
7057;SDS011;3570;43.080;25.628;2022-12-18T08:57:53;24.33;;;12.17;;
7057;SDS011;3570;43.080;25.628;2022-12-18T09:00:36;23.73;;;12.00;;
7057;SDS011;3570;43.080;25.628;2022-12-18T09:03:20;18.23;;;10.40;;
7057;SDS011;3570;43.080;25.628;2022-12-18T09:06:06;22.70;;;12.40;;
7057;SDS011;3570;43.080;25.628;2022-12-18T09:08:50;22.63;;;10.77;;
7057;SDS011;3570;43.080;25.628;2022-12-18T09:11:34;16.40;;;10.03;;
7057;SDS011;3570;43.080;25.628;2022-12-18T09:14:18;18.80;;;9.50;;
7057;SDS011;3570;43.080;25.628;2022-12-18T09:17:02;16.40;;;9.27;;
7057;SDS011;3570;43.080;25.628;2022-12-18T09:19:46;21.23;;;10.33;;
7057;SDS011;3570;43.080;25.628;2022-12-18T09:22:30;20.60;;;11.07;;
7057;SDS011;3570;43.080;25.628;2022-12-18T09:25:14;14.90;;;9.07;;
7057;SDS011;3570;43.080;25.628;2022-12-18T09:27:59;16.07;;;8.43;;
7057;SDS011;3570;43.080;25.628;2022-12-18T09:30:48;15.27;;;8.97;;
7057;SDS011;3570;43.080;25.628;2022-12-18T09:33:33;16.40;;;9.27;;
7057;SDS011;3570;43.080;25.628;2022-12-18T09:36:20;15.67;;;9.57;;
7057;SDS011;3570;43.080;25.628;2022-12-18T09:39:04;17.87;;;10.07;;
7057;SDS011;3570;43.080;25.628;2022-12-18T09:41:52;16.77;;;8.77;;
7057;SDS011;3570;43.080;25.628;2022-12-18T09:44:42;17.07;;;8.90;;
7057;SDS011;3570;43.080;25.628;2022-12-18T09:47:32;21.03;;;9.97;;
7057;SDS011;3570;43.080;25.628;2022-12-18T09:50:27;18.23;;;10.63;;
7057;SDS011;3570;43.080;25.628;2022-12-18T09:53:17;17.77;;;11.50;;
7057;SDS011;3570;43.080;25.628;2022-12-18T09:56:05;20.77;;;9.90;;
7057;SDS011;3570;43.080;25.628;2022-12-18T09:59:00;28.77;;;15.53;;
7057;SDS011;3570;43.080;25.628;2022-12-18T10:01:46;25.57;;;12.80;;
7057;SDS011;3570;43.080;25.628;2022-12-18T10:04:30;22.60;;;12.17;;
7057;SDS011;3570;43.080;25.628;2022-12-18T10:07:21;20.50;;;11.63;;
7057;SDS011;3570;43.080;25.628;2022-12-18T10:10:19;25.07;;;11.07;;
7057;SDS011;3570;43.080;25.628;2022-12-18T10:13:13;18.20;;;10.47;;
7057;SDS011;3570;43.080;25.628;2022-12-18T10:16:14;24.43;;;11.17;;
7057;SDS011;3570;43.080;25.628;2022-12-18T10:26:12;16.57;;;9.10;;
7057;SDS011;3570;43.080;25.628;2022-12-18T10:28:35;20.83;;;11.13;;
7057;SDS011;3570;43.080;25.628;2022-12-18T10:31:23;22.63;;;10.37;;
7057;SDS011;3570;43.080;25.628;2022-12-18T10:34:11;21.47;;;10.53;;
7057;SDS011;3570;43.080;25.628;2022-12-18T10:36:55;21.47;;;9.37;;
7057;SDS011;3570;43.080;25.628;2022-12-18T10:39:40;14.97;;;9.57;;
7057;SDS011;3570;43.080;25.628;2022-12-18T10:42:24;16.23;;;9.67;;
7057;SDS011;3570;43.080;25.628;2022-12-18T10:45:12;15.43;;;9.43;;
7057;SDS011;3570;43.080;25.628;2022-12-18T10:47:58;19.20;;;9.73;;
7057;SDS011;3570;43.080;25.628;2022-12-18T10:50:42;19.07;;;10.67;;
7057;SDS011;3570;43.080;25.628;2022-12-18T10:53:31;19.90;;;9.93;;
7057;SDS011;3570;43.080;25.628;2022-12-18T10:56:19;18.17;;;9.13;;
7057;SDS011;3570;43.080;25.628;2022-12-18T10:59:08;16.03;;;8.37;;
7057;SDS011;3570;43.080;25.628;2022-12-18T11:01:54;14.67;;;7.97;;
7057;SDS011;3570;43.080;25.628;2022-12-18T11:04:49;17.97;;;9.07;;
7057;SDS011;3570;43.080;25.628;2022-12-18T11:07:46;16.33;;;9.30;;
7057;SDS011;3570;43.080;25.628;2022-12-18T11:10:36;13.27;;;8.03;;
7057;SDS011;3570;43.080;25.628;2022-12-18T11:13:24;19.73;;;9.57;;
7057;SDS011;3570;43.080;25.628;2022-12-18T11:16:17;15.47;;;9.10;;
7057;SDS011;3570;43.080;25.628;2022-12-18T11:19:37;12.30;;;7.00;;
7057;SDS011;3570;43.080;25.628;2022-12-18T11:22:21;13.70;;;7.93;;
7057;SDS011;3570;43.080;25.628;2022-12-18T11:28:25;16.40;;;8.43;;
7057;SDS011;3570;43.080;25.628;2022-12-18T11:31:25;14.50;;;8.63;;
7057;SDS011;3570;43.080;25.628;2022-12-18T11:34:30;11.93;;;7.73;;
7057;SDS011;3570;43.080;25.628;2022-12-18T11:37:15;14.43;;;8.90;;
7057;SDS011;3570;43.080;25.628;2022-12-18T11:40:06;14.60;;;8.87;;
7057;SDS011;3570;43.080;25.628;2022-12-18T11:43:05;13.13;;;9.13;;
7057;SDS011;3570;43.080;25.628;2022-12-18T11:45:58;15.67;;;9.37;;
7057;SDS011;3570;43.080;25.628;2022-12-18T11:48:57;13.70;;;8.73;;
7057;SDS011;3570;43.080;25.628;2022-12-18T11:51:51;14.50;;;8.67;;
7057;SDS011;3570;43.080;25.628;2022-12-18T11:54:57;15.77;;;8.37;;
7057;SDS011;3570;43.080;25.628;2022-12-18T12:00:52;16.83;;;9.07;;
7057;SDS011;3570;43.080;25.628;2022-12-18T12:10:16;18.00;;;9.60;;
7057;SDS011;3570;43.080;25.628;2022-12-18T12:21:40;20.27;;;11.13;;
7057;SDS011;3570;43.080;25.628;2022-12-18T12:27:44;18.90;;;10.73;;
7057;SDS011;3570;43.080;25.628;2022-12-18T12:33:34;23.57;;;11.77;;
7057;SDS011;3570;43.080;25.628;2022-12-18T12:36:23;18.43;;;9.57;;
7057;SDS011;3570;43.080;25.628;2022-12-18T12:39:22;22.77;;;11.17;;
7057;SDS011;3570;43.080;25.628;2022-12-18T12:42:21;21.83;;;11.47;;
7057;SDS011;3570;43.080;25.628;2022-12-18T12:45:54;17.80;;;10.67;;
7057;SDS011;3570;43.080;25.628;2022-12-18T12:51:36;23.53;;;11.07;;
7057;SDS011;3570;43.080;25.628;2022-12-18T12:54:24;20.90;;;11.13;;
7057;SDS011;3570;43.080;25.628;2022-12-18T12:57:15;22.57;;;11.07;;
7057;SDS011;3570;43.080;25.628;2022-12-18T13:00:14;32.50;;;13.53;;
7057;SDS011;3570;43.080;25.628;2022-12-18T13:09:12;20.93;;;11.80;;
7057;SDS011;3570;43.080;25.628;2022-12-18T13:12:01;21.27;;;11.60;;
7057;SDS011;3570;43.080;25.628;2022-12-18T13:15:13;22.03;;;11.13;;
7057;SDS011;3570;43.080;25.628;2022-12-18T13:18:10;26.47;;;11.93;;
7057;SDS011;3570;43.080;25.628;2022-12-18T13:21:19;20.77;;;11.40;;
7057;SDS011;3570;43.080;25.628;2022-12-18T13:24:25;24.63;;;13.33;;
7057;SDS011;3570;43.080;25.628;2022-12-18T13:36:46;27.60;;;12.93;;
7057;SDS011;3570;43.080;25.628;2022-12-18T13:44:48;23.47;;;11.63;;
7057;SDS011;3570;43.080;25.628;2022-12-18T13:50:20;23.33;;;12.20;;
7057;SDS011;3570;43.080;25.628;2022-12-18T13:53:15;23.23;;;13.20;;
7057;SDS011;3570;43.080;25.628;2022-12-18T13:56:05;21.20;;;11.93;;
7057;SDS011;3570;43.080;25.628;2022-12-18T14:04:38;26.17;;;13.47;;
7057;SDS011;3570;43.080;25.628;2022-12-18T14:07:26;23.33;;;13.30;;
7057;SDS011;3570;43.080;25.628;2022-12-18T14:10:13;31.50;;;16.67;;
7057;SDS011;3570;43.080;25.628;2022-12-18T14:13:03;29.40;;;14.43;;
7057;SDS011;3570;43.080;25.628;2022-12-18T14:15:50;23.00;;;12.87;;
7057;SDS011;3570;43.080;25.628;2022-12-18T14:18:45;27.83;;;13.03;;
7057;SDS011;3570;43.080;25.628;2022-12-18T14:21:29;29.47;;;12.97;;
7057;SDS011;3570;43.080;25.628;2022-12-18T14:24:20;22.53;;;11.90;;
7057;SDS011;3570;43.080;25.628;2022-12-18T14:27:20;24.47;;;12.40;;
7057;SDS011;3570;43.080;25.628;2022-12-18T14:38:47;27.07;;;13.50;;
7057;SDS011;3570;43.080;25.628;2022-12-18T14:41:37;22.80;;;14.00;;
7057;SDS011;3570;43.080;25.628;2022-12-18T14:44:21;25.30;;;13.87;;
7057;SDS011;3570;43.080;25.628;2022-12-18T14:47:12;24.60;;;13.47;;
7057;SDS011;3570;43.080;25.628;2022-12-18T14:49:59;26.33;;;12.93;;
7057;SDS011;3570;43.080;25.628;2022-12-18T14:52:43;25.50;;;15.23;;
7057;SDS011;3570;43.080;25.628;2022-12-18T14:55:27;25.13;;;12.57;;
7057;SDS011;3570;43.080;25.628;2022-12-18T14:58:11;24.20;;;12.17;;
7057;SDS011;3570;43.080;25.628;2022-12-18T15:00:59;26.80;;;13.67;;
7057;SDS011;3570;43.080;25.628;2022-12-18T15:03:43;23.50;;;12.97;;
7057;SDS011;3570;43.080;25.628;2022-12-18T15:09:24;25.80;;;13.00;;
7057;SDS011;3570;43.080;25.628;2022-12-18T15:12:26;23.77;;;13.27;;
7057;SDS011;3570;43.080;25.628;2022-12-18T15:18:29;23.17;;;13.57;;
7057;SDS011;3570;43.080;25.628;2022-12-18T15:21:19;23.03;;;13.33;;
7057;SDS011;3570;43.080;25.628;2022-12-18T15:24:04;28.60;;;14.20;;
7057;SDS011;3570;43.080;25.628;2022-12-18T15:30:18;28.70;;;14.33;;
7057;SDS011;3570;43.080;25.628;2022-12-18T15:33:17;29.87;;;14.87;;
7057;SDS011;3570;43.080;25.628;2022-12-18T15:36:14;30.40;;;14.33;;
7057;SDS011;3570;43.080;25.628;2022-12-18T15:38:59;29.97;;;13.30;;
7057;SDS011;3570;43.080;25.628;2022-12-18T15:41:43;35.13;;;16.70;;
7057;SDS011;3570;43.080;25.628;2022-12-18T15:44:47;37.03;;;17.87;;
7057;SDS011;3570;43.080;25.628;2022-12-18T15:47:32;27.67;;;12.60;;
7057;SDS011;3570;43.080;25.628;2022-12-18T15:50:16;29.17;;;14.77;;
7057;SDS011;3570;43.080;25.628;2022-12-18T15:53:00;30.40;;;14.30;;
7057;SDS011;3570;43.080;25.628;2022-12-18T15:55:44;29.27;;;14.70;;
7057;SDS011;3570;43.080;25.628;2022-12-18T15:58:47;35.30;;;17.23;;
7057;SDS011;3570;43.080;25.628;2022-12-18T16:01:31;33.93;;;16.17;;
7057;SDS011;3570;43.080;25.628;2022-12-18T16:04:16;35.90;;;17.20;;
7057;SDS011;3570;43.080;25.628;2022-12-18T16:07:04;31.33;;;16.13;;
7057;SDS011;3570;43.080;25.628;2022-12-18T16:09:48;31.97;;;15.57;;
7057;SDS011;3570;43.080;25.628;2022-12-18T16:12:32;31.43;;;13.90;;
7057;SDS011;3570;43.080;25.628;2022-12-18T16:15:16;23.07;;;13.63;;
7057;SDS011;3570;43.080;25.628;2022-12-18T16:18:00;27.87;;;13.33;;
7057;SDS011;3570;43.080;25.628;2022-12-18T16:20:44;28.37;;;14.83;;
7057;SDS011;3570;43.080;25.628;2022-12-18T16:23:28;27.20;;;14.60;;
7057;SDS011;3570;43.080;25.628;2022-12-18T16:26:12;32.97;;;14.40;;
7057;SDS011;3570;43.080;25.628;2022-12-18T16:28:56;35.53;;;14.27;;
7057;SDS011;3570;43.080;25.628;2022-12-18T16:31:42;27.60;;;15.50;;
7057;SDS011;3570;43.080;25.628;2022-12-18T16:34:30;25.93;;;14.13;;
7057;SDS011;3570;43.080;25.628;2022-12-18T16:37:15;33.63;;;15.13;;
7057;SDS011;3570;43.080;25.628;2022-12-18T16:39:59;28.13;;;14.17;;
7057;SDS011;3570;43.080;25.628;2022-12-18T16:42:44;28.67;;;15.77;;
7057;SDS011;3570;43.080;25.628;2022-12-18T16:45:29;33.40;;;15.77;;
7057;SDS011;3570;43.080;25.628;2022-12-18T16:48:16;29.20;;;14.90;;
7057;SDS011;3570;43.080;25.628;2022-12-18T16:51:01;28.70;;;13.77;;
7057;SDS011;3570;43.080;25.628;2022-12-18T16:53:47;28.87;;;14.40;;
7057;SDS011;3570;43.080;25.628;2022-12-18T16:56:31;33.33;;;14.60;;
7057;SDS011;3570;43.080;25.628;2022-12-18T16:59:16;30.67;;;15.07;;
7057;SDS011;3570;43.080;25.628;2022-12-18T17:02:01;27.90;;;15.00;;
7057;SDS011;3570;43.080;25.628;2022-12-18T17:04:49;27.23;;;14.10;;
7057;SDS011;3570;43.080;25.628;2022-12-18T17:07:35;29.90;;;14.43;;
7057;SDS011;3570;43.080;25.628;2022-12-18T17:10:19;28.10;;;14.33;;
7057;SDS011;3570;43.080;25.628;2022-12-18T17:13:03;32.03;;;13.20;;
7057;SDS011;3570;43.080;25.628;2022-12-18T17:15:48;30.63;;;17.03;;
7057;SDS011;3570;43.080;25.628;2022-12-18T17:18:35;34.40;;;16.07;;
7057;SDS011;3570;43.080;25.628;2022-12-18T17:21:21;25.30;;;14.73;;
7057;SDS011;3570;43.080;25.628;2022-12-18T17:24:06;30.00;;;14.43;;
7057;SDS011;3570;43.080;25.628;2022-12-18T17:26:50;27.07;;;13.27;;
7057;SDS011;3570;43.080;25.628;2022-12-18T17:29:35;29.47;;;14.80;;
7057;SDS011;3570;43.080;25.628;2022-12-18T17:32:22;32.27;;;15.10;;
7057;SDS011;3570;43.080;25.628;2022-12-18T17:35:07;26.57;;;14.30;;
7057;SDS011;3570;43.080;25.628;2022-12-18T17:37:53;23.33;;;13.13;;
7057;SDS011;3570;43.080;25.628;2022-12-18T17:40:37;23.97;;;13.53;;
7057;SDS011;3570;43.080;25.628;2022-12-18T17:43:25;27.73;;;13.40;;
7057;SDS011;3570;43.080;25.628;2022-12-18T17:46:09;27.53;;;12.93;;
7057;SDS011;3570;43.080;25.628;2022-12-18T17:48:54;23.90;;;13.00;;
7057;SDS011;3570;43.080;25.628;2022-12-18T17:51:38;23.57;;;12.70;;
7057;SDS011;3570;43.080;25.628;2022-12-18T17:54:25;28.30;;;13.10;;
7057;SDS011;3570;43.080;25.628;2022-12-18T17:57:09;26.87;;;12.83;;
7057;SDS011;3570;43.080;25.628;2022-12-18T17:59:53;28.23;;;13.17;;
7057;SDS011;3570;43.080;25.628;2022-12-18T18:02:37;24.53;;;11.90;;
7057;SDS011;3570;43.080;25.628;2022-12-18T18:05:21;24.20;;;13.30;;
7057;SDS011;3570;43.080;25.628;2022-12-18T18:08:05;21.67;;;11.40;;
7057;SDS011;3570;43.080;25.628;2022-12-18T18:10:50;29.13;;;13.13;;
7057;SDS011;3570;43.080;25.628;2022-12-18T18:13:35;25.50;;;12.87;;
7057;SDS011;3570;43.080;25.628;2022-12-18T18:16:44;28.47;;;14.37;;
7057;SDS011;3570;43.080;25.628;2022-12-18T18:19:33;32.27;;;14.30;;
7057;SDS011;3570;43.080;25.628;2022-12-18T18:22:17;27.70;;;14.37;;
7057;SDS011;3570;43.080;25.628;2022-12-18T18:25:02;31.00;;;14.37;;
7057;SDS011;3570;43.080;25.628;2022-12-18T18:27:46;27.80;;;14.67;;
7057;SDS011;3570;43.080;25.628;2022-12-18T18:30:30;28.60;;;15.93;;
7057;SDS011;3570;43.080;25.628;2022-12-18T18:33:14;26.93;;;13.53;;